createdAt,value
2022-10-24T00:01:35.416Z,22.43
2022-10-24T00:06:58.926Z,21.97
2022-10-24T00:17:43.827Z,22.17
2022-10-24T00:23:06.007Z,22.73
2022-10-24T00:28:28.229Z,23.47
2022-10-24T00:33:51.050Z,23.05
2022-10-24T00:39:14.078Z,22.40
2022-10-24T00:44:40.277Z,24.37
2022-10-24T00:50:13.339Z,22.73
2022-10-24T00:55:35.547Z,24.10
2022-10-24T01:00:57.958Z,23.80
2022-10-24T01:06:50.840Z,25.03
2022-10-24T01:12:20.497Z,25.27
2022-10-24T01:17:56.093Z,26.37
2022-10-24T01:23:54.208Z,27.27
2022-10-24T01:29:29.540Z,26.45
2022-10-24T01:34:59.537Z,27.57
2022-10-24T01:40:32.567Z,27.43
2022-10-24T01:45:59.708Z,27.90
2022-10-24T01:51:24.478Z,28.50
2022-10-24T01:56:47.347Z,29.10
2022-10-24T02:02:21.943Z,28.23
2022-10-24T02:07:46.939Z,28.23
2022-10-24T02:13:20.466Z,29.10
2022-10-24T02:18:43.692Z,28.40
2022-10-24T02:24:22.472Z,26.80
2022-10-24T02:30:20.169Z,27.00
2022-10-24T02:35:46.279Z,27.27
2022-10-24T02:41:12.835Z,26.68
2022-10-24T02:46:37.458Z,27.70
2022-10-24T02:52:01.861Z,27.07
2022-10-24T02:57:25.529Z,26.73
2022-10-24T03:02:48.023Z,26.00
2022-10-24T03:08:10.527Z,27.02
2022-10-24T03:13:32.855Z,28.40
2022-10-24T03:18:55.593Z,27.90
2022-10-24T03:24:26.721Z,27.90
2022-10-24T03:29:42.118Z,28.00
2022-10-24T03:35:04.260Z,27.07
2022-10-24T03:40:27.631Z,26.43
2022-10-24T03:45:50.263Z,25.80
2022-10-24T03:51:12.640Z,27.35
2022-10-24T03:56:35.434Z,28.17
2022-10-24T04:01:59.787Z,26.42
2022-10-24T04:07:22.084Z,27.30
2022-10-24T04:12:44.920Z,27.95
2022-10-24T04:18:08.441Z,27.22
2022-10-24T04:23:33.055Z,27.60
2022-10-24T04:28:55.350Z,27.80
2022-10-24T04:34:17.956Z,29.80
2022-10-24T04:39:40.193Z,35.83
2022-10-24T04:45:02.369Z,29.37
2022-10-24T04:50:24.959Z,28.75
2022-10-24T04:55:48.457Z,26.17
2022-10-24T05:01:10.719Z,26.10
2022-10-24T05:06:33.452Z,26.25
2022-10-24T05:11:56.192Z,24.67
2022-10-24T05:17:19.280Z,24.92
2022-10-24T05:22:41.467Z,24.45
2022-10-24T05:28:03.679Z,26.25
2022-10-24T05:33:25.924Z,27.30
2022-10-24T05:38:48.157Z,26.60
2022-10-24T05:44:10.407Z,26.82
2022-10-24T05:49:32.827Z,25.95
2022-10-24T05:55:06.309Z,26.10
2022-10-24T06:00:22.286Z,25.45
2022-10-24T06:05:44.526Z,25.15
2022-10-24T06:11:07.521Z,24.40
2022-10-24T06:16:30.972Z,25.52
2022-10-24T06:21:53.184Z,25.17
2022-10-24T06:27:16.186Z,26.93
2022-10-24T06:32:39.661Z,25.82
2022-10-24T06:38:02.267Z,24.10
2022-10-24T06:43:24.484Z,23.93
2022-10-24T06:48:47.249Z,22.30
2022-10-24T06:54:10.560Z,22.32
2022-10-24T06:59:34.325Z,22.55
2022-10-24T07:04:56.491Z,23.55
2022-10-24T07:10:20.079Z,23.35
2022-10-24T07:15:42.268Z,23.30
2022-10-24T07:21:10.392Z,24.67
2022-10-24T07:26:34.543Z,24.37
2022-10-24T07:31:59.782Z,23.02
2022-10-24T07:37:23.311Z,21.93
2022-10-24T07:42:45.493Z,21.60
2022-10-24T07:48:08.355Z,19.87
2022-10-24T07:53:31.284Z,24.85
2022-10-24T07:58:56.818Z,20.25
2022-10-24T08:04:18.995Z,19.90
2022-10-24T08:09:43.250Z,19.73
2022-10-24T08:15:06.437Z,38.90
2022-10-24T08:20:30.331Z,21.00
2022-10-24T08:25:53.380Z,20.85
2022-10-24T08:31:19.995Z,19.70
2022-10-24T08:36:46.910Z,19.85
2022-10-24T08:42:19.538Z,20.02
2022-10-24T08:48:05.153Z,20.20
2022-10-24T08:53:36.616Z,20.45
2022-10-24T08:59:01.388Z,19.77
2022-10-24T09:04:27.308Z,17.12
2022-10-24T09:09:54.047Z,19.15
2022-10-24T09:15:22.847Z,20.25
2022-10-24T09:20:46.382Z,18.40
2022-10-24T09:26:12.826Z,18.75
2022-10-24T09:31:38.856Z,19.52
2022-10-24T09:37:01.670Z,19.55
2022-10-24T09:42:25.447Z,14.85
2022-10-24T09:47:48.653Z,12.58
2022-10-24T09:53:13.661Z,12.70
2022-10-24T09:58:39.003Z,12.58
2022-10-24T10:04:17.457Z,12.85
2022-10-24T10:09:52.737Z,11.48
2022-10-24T10:15:27.008Z,12.20
2022-10-24T10:20:52.526Z,10.45
2022-10-24T10:26:49.708Z,9.60
2022-10-24T10:32:36.507Z,10.15
2022-10-24T10:38:12.803Z,8.98
2022-10-24T10:44:14.331Z,8.80
2022-10-24T10:49:46.438Z,8.93
2022-10-24T10:55:47.875Z,9.13
2022-10-24T11:01:52.425Z,9.13
2022-10-24T11:07:45.279Z,8.33
2022-10-24T11:13:10.232Z,7.67
2022-10-24T11:18:54.548Z,8.10
2022-10-24T11:24:21.796Z,8.48
2022-10-24T11:29:57.580Z,11.73
2022-10-24T11:35:34.656Z,8.73
2022-10-24T11:41:03.931Z,9.10
2022-10-24T11:46:33.496Z,9.40
2022-10-24T11:52:12.942Z,9.63
2022-10-24T11:57:38.287Z,8.18
2022-10-24T12:03:14.561Z,7.72
2022-10-24T12:09:05.957Z,6.80
2022-10-24T12:14:39.322Z,6.20
2022-10-24T12:20:06.343Z,7.08
2022-10-24T12:25:48.212Z,6.62
2022-10-24T12:31:30.779Z,7.28
2022-10-24T12:37:26.798Z,7.03
2022-10-24T12:42:54.324Z,7.72
2022-10-24T12:48:36.696Z,6.17
2022-10-24T12:54:32.180Z,6.78
2022-10-24T13:00:01.058Z,6.58
2022-10-24T13:05:37.162Z,7.25
2022-10-24T13:11:39.136Z,7.53
2022-10-24T13:17:27.522Z,6.92
2022-10-24T13:22:51.833Z,6.47
2022-10-24T13:28:36.170Z,6.90
2022-10-24T13:34:04.073Z,9.00
2022-10-24T13:39:37.459Z,9.53
2022-10-24T13:45:26.217Z,9.48
2022-10-24T13:50:56.375Z,7.20
2022-10-24T13:56:22.893Z,7.90
2022-10-24T14:01:47.485Z,8.58
2022-10-24T14:07:14.635Z,7.22
2022-10-24T14:12:39.787Z,6.72
2022-10-24T14:18:13.574Z,6.53
2022-10-24T14:23:52.836Z,7.40
2022-10-24T14:29:18.816Z,7.05
2022-10-24T14:34:43.934Z,11.12
2022-10-24T14:40:07.707Z,7.72
2022-10-24T14:45:43.813Z,8.08
2022-10-24T14:51:23.006Z,7.90
2022-10-24T14:56:48.148Z,7.62
2022-10-24T15:02:47.898Z,8.05
2022-10-24T15:08:24.646Z,7.70
2022-10-24T15:14:05.788Z,7.20
2022-10-24T15:19:19.541Z,11.80
2022-10-24T15:24:44.454Z,8.60
2022-10-24T15:30:07.374Z,7.17
2022-10-24T15:35:30.749Z,7.85
2022-10-24T15:40:55.406Z,8.08
2022-10-24T15:46:17.634Z,8.70
2022-10-24T15:51:44.516Z,10.65
2022-10-24T15:57:06.294Z,11.53
2022-10-24T16:02:31.813Z,10.08
2022-10-24T16:07:54.026Z,9.75
2022-10-24T16:13:16.766Z,9.08
2022-10-24T16:18:39.104Z,8.80
2022-10-24T16:24:01.686Z,8.45
2022-10-24T16:29:24.318Z,8.38
2022-10-24T16:34:48.215Z,8.28
2022-10-24T16:40:12.598Z,8.13
2022-10-24T16:45:35.693Z,8.23
2022-10-24T16:51:01.659Z,8.65
2022-10-24T16:56:25.089Z,10.95
2022-10-24T17:01:47.639Z,9.88
2022-10-24T17:07:10.032Z,10.55
2022-10-24T17:12:33.099Z,11.88
2022-10-24T17:17:55.803Z,10.78
2022-10-24T17:23:19.110Z,11.78
2022-10-24T17:28:41.954Z,11.73
2022-10-24T17:34:04.474Z,10.60
2022-10-24T17:39:34.509Z,9.98
2022-10-24T17:44:57.490Z,10.37
2022-10-24T17:50:20.430Z,10.82
2022-10-24T17:55:46.679Z,9.55
2022-10-24T18:01:08.663Z,12.63
2022-10-24T18:06:31.262Z,13.78
2022-10-24T18:11:53.573Z,13.72
2022-10-24T18:17:16.205Z,13.85
2022-10-24T18:22:39.234Z,14.38
2022-10-24T18:28:01.764Z,13.95
2022-10-24T18:33:23.949Z,12.23
2022-10-24T18:38:47.326Z,12.43
2022-10-24T18:44:12.607Z,11.20
2022-10-24T18:49:47.566Z,11.63
2022-10-24T18:55:26.639Z,10.93
2022-10-24T19:00:53.111Z,11.00
2022-10-24T19:06:37.523Z,10.87
2022-10-24T19:12:00.213Z,12.43
2022-10-24T19:17:24.508Z,9.67
2022-10-24T19:22:47.502Z,9.33
2022-10-24T19:28:10.066Z,9.20
2022-10-24T19:33:34.272Z,9.20
2022-10-24T19:38:58.232Z,9.18
2022-10-24T19:44:21.652Z,10.67
2022-10-24T19:49:43.811Z,10.10
2022-10-24T19:55:05.990Z,10.60
2022-10-24T20:00:31.429Z,10.65
2022-10-24T20:05:53.727Z,9.75
2022-10-24T20:11:16.667Z,9.60
2022-10-24T20:16:39.298Z,8.57
2022-10-24T20:22:02.579Z,8.70
2022-10-24T20:27:25.460Z,9.25
2022-10-24T20:32:47.998Z,9.07
2022-10-24T20:38:10.166Z,9.73
2022-10-24T20:43:32.394Z,8.73
2022-10-24T20:48:54.976Z,7.90
2022-10-24T20:54:18.761Z,8.50
2022-10-24T20:59:41.107Z,8.95
2022-10-24T21:05:04.839Z,8.00
2022-10-24T21:10:27.696Z,8.20
2022-10-24T21:15:49.886Z,8.25
2022-10-24T21:21:13.136Z,7.47
2022-10-24T21:26:37.283Z,6.97
2022-10-24T21:31:59.445Z,7.20
2022-10-24T21:37:22.364Z,7.35
2022-10-24T21:42:44.841Z,6.97
2022-10-24T21:48:08.226Z,6.72
2022-10-24T21:53:30.890Z,7.55
2022-10-24T21:58:55.607Z,6.73
2022-10-24T22:04:20.327Z,6.62
2022-10-24T22:09:42.678Z,7.90
2022-10-24T22:15:04.856Z,8.50
2022-10-24T22:20:27.153Z,7.80
2022-10-24T22:25:49.355Z,8.43
2022-10-24T22:31:11.964Z,7.90
2022-10-24T22:36:44.965Z,7.58
2022-10-24T22:42:08.118Z,8.03
2022-10-24T22:48:02.426Z,7.33
2022-10-24T22:53:28.642Z,5.40
2022-10-24T22:58:52.616Z,6.15
2022-10-24T23:04:38.789Z,5.40
2022-10-24T23:10:01.321Z,5.10
2022-10-24T23:15:25.914Z,5.90
2022-10-24T23:20:56.414Z,6.65
2022-10-24T23:26:41.336Z,5.67
2022-10-24T23:32:03.749Z,5.27
2022-10-24T23:37:40.574Z,4.92
2022-10-24T23:43:06.875Z,5.13
2022-10-24T23:48:43.077Z,4.62
2022-10-24T23:54:10.329Z,5.60
2022-10-24T23:59:32.611Z,5.47
